createdAt,value
2019-04-22T00:01:04.836Z,11.73
2019-04-22T00:03:37.740Z,8.98
2019-04-22T00:06:25.967Z,9.55
2019-04-22T00:08:57.688Z,10.35
2019-04-22T00:11:29.181Z,10.88
2019-04-22T00:13:56.719Z,7.37
2019-04-22T00:16:32.068Z,7.35
2019-04-22T00:21:35.219Z,8.58
2019-04-22T00:23:59.078Z,10.00
2019-04-22T00:29:20.805Z,6.65
2019-04-22T00:31:37.861Z,11.12
2019-04-22T00:34:06.148Z,8.28
2019-04-22T00:36:40.380Z,12.25
2019-04-22T00:39:18.465Z,5.72
2019-04-22T00:41:44.067Z,4.85
2019-04-22T00:44:15.324Z,6.30
2019-04-22T00:46:44.447Z,7.12
2019-04-22T00:49:52.899Z,5.67
2019-04-22T00:51:44.776Z,5.55
2019-04-22T00:54:13.645Z,6.47
2019-04-22T00:56:42.203Z,10.05
2019-04-22T00:59:15.623Z,6.37
2019-04-22T01:01:46.412Z,8.83
2019-04-22T01:04:19.911Z,8.68
2019-04-22T01:06:39.823Z,5.72
2019-04-22T01:09:31.312Z,7.97
2019-04-22T01:11:44.953Z,9.20
2019-04-22T01:14:20.296Z,7.05
2019-04-22T01:16:50.891Z,8.10
2019-04-22T01:19:12.301Z,8.28
2019-04-22T01:21:44.826Z,8.65
2019-04-22T01:24:18.691Z,7.28
2019-04-22T01:26:43.420Z,12.82
2019-04-22T01:29:12.663Z,10.15
2019-04-22T01:31:31.546Z,8.40
2019-04-22T01:34:33.454Z,9.03
2019-04-22T01:37:08.000Z,9.55
2019-04-22T01:39:43.940Z,8.10
2019-04-22T01:42:10.482Z,10.00
2019-04-22T01:44:46.621Z,8.08
2019-04-22T01:47:21.352Z,8.90
2019-04-22T01:49:46.166Z,12.33
2019-04-22T01:52:15.770Z,11.12
2019-04-22T01:54:52.528Z,7.87
2019-04-22T01:57:18.752Z,7.78
2019-04-22T01:59:44.307Z,6.62
2019-04-22T02:02:25.523Z,11.40
2019-04-22T02:04:53.663Z,7.85
2019-04-22T02:07:28.003Z,7.33
2019-04-22T02:09:58.469Z,12.50
2019-04-22T02:14:50.696Z,6.95
2019-04-22T02:17:26.580Z,7.80
2019-04-22T02:20:02.610Z,6.20
2019-04-22T02:22:44.255Z,7.05
2019-04-22T02:24:58.847Z,10.28
2019-04-22T02:27:32.538Z,9.10
2019-04-22T02:29:51.990Z,6.65
2019-04-22T02:35:25.969Z,8.30
2019-04-22T02:37:32.287Z,9.33
2019-04-22T02:40:03.677Z,13.90
2019-04-22T02:42:24.618Z,8.00
2019-04-22T02:44:57.952Z,7.53
2019-04-22T02:47:27.754Z,9.58
2019-04-22T02:50:05.240Z,13.22
2019-04-22T02:55:08.213Z,11.03
2019-04-22T02:57:39.766Z,6.50
2019-04-22T03:00:14.121Z,9.58
2019-04-22T03:05:13.308Z,9.15
2019-04-22T03:07:42.437Z,9.73
2019-04-22T03:10:10.039Z,7.72
2019-04-22T03:12:35.246Z,14.28
2019-04-22T03:15:07.317Z,12.73
2019-04-22T03:17:47.359Z,13.60
2019-04-22T03:22:46.867Z,9.85
2019-04-22T03:25:43.126Z,10.90
2019-04-22T03:37:50.513Z,18.32
2019-04-22T03:40:28.598Z,11.12
2019-04-22T03:45:28.406Z,13.72
2019-04-22T03:47:53.588Z,15.25
2019-04-22T03:50:20.739Z,14.90
2019-04-22T03:52:50.413Z,13.45
2019-04-22T03:55:34.329Z,12.07
2019-04-22T03:57:50.141Z,11.68
2019-04-22T04:00:28.454Z,12.47
2019-04-22T04:02:54.825Z,9.05
2019-04-22T04:05:33.444Z,14.90
2019-04-22T04:07:57.725Z,12.73
2019-04-22T04:13:01.926Z,10.28
2019-04-22T04:15:23.568Z,12.25
2019-04-22T04:17:56.963Z,12.75
2019-04-22T04:25:38.498Z,11.73
2019-04-22T04:30:30.157Z,13.80
2019-04-22T04:32:59.040Z,13.00
2019-04-22T04:37:56.030Z,11.40
2019-04-22T04:43:03.233Z,15.72
2019-04-22T04:45:51.214Z,14.87
2019-04-22T04:47:54.581Z,11.30
2019-04-22T04:50:27.348Z,14.00
2019-04-22T04:53:06.102Z,12.13
2019-04-22T04:55:30.467Z,15.45
2019-04-22T04:58:29.681Z,16.50
2019-04-22T05:00:48.655Z,15.60
2019-04-22T05:03:00.602Z,15.65
2019-04-22T05:05:35.295Z,13.62
2019-04-22T05:18:09.230Z,14.25
2019-04-22T05:23:01.244Z,15.83
2019-04-22T05:25:36.851Z,14.07
2019-04-22T05:28:08.762Z,13.32
2019-04-22T05:30:57.640Z,16.80
2019-04-22T05:33:08.720Z,16.42
2019-04-22T05:35:37.852Z,13.80
2019-04-22T05:38:20.142Z,10.45
2019-04-22T05:40:34.900Z,10.50
2019-04-22T05:43:09.674Z,11.48
2019-04-22T05:45:36.965Z,15.63
2019-04-22T05:48:13.628Z,13.53
2019-04-22T05:50:45.352Z,15.88
2019-04-22T05:53:07.234Z,14.55
2019-04-22T05:58:15.630Z,10.95
2019-04-22T06:01:11.451Z,15.05
2019-04-22T06:03:16.544Z,17.42
2019-04-22T06:05:47.209Z,16.02
2019-04-22T06:08:19.703Z,19.70
2019-04-22T06:10:53.110Z,15.78
2019-04-22T06:13:18.155Z,14.58
2019-04-22T06:15:44.017Z,15.13
2019-04-22T06:18:27.499Z,15.13
2019-04-22T06:26:35.896Z,18.07
2019-04-22T06:28:51.922Z,17.57
2019-04-22T06:31:27.848Z,17.52
2019-04-22T06:33:48.512Z,15.20
2019-04-22T06:36:27.623Z,16.80
2019-04-22T06:38:45.909Z,15.50
2019-04-22T06:41:24.824Z,19.60
2019-04-22T06:43:56.314Z,17.40
2019-04-22T06:46:25.460Z,16.00
2019-04-22T06:48:52.403Z,16.02
2019-04-22T06:51:19.809Z,17.57
2019-04-22T06:53:48.017Z,17.73
2019-04-22T06:56:25.054Z,16.90
2019-04-22T06:58:52.268Z,16.00
2019-04-22T07:01:27.592Z,14.03
2019-04-22T07:03:53.656Z,16.37
2019-04-22T07:06:26.410Z,12.03
2019-04-22T07:09:14.282Z,14.10
2019-04-22T07:11:23.667Z,14.75
2019-04-22T07:14:01.513Z,20.10
2019-04-22T07:16:31.956Z,16.32
2019-04-22T07:18:56.621Z,12.80
2019-04-22T07:21:30.613Z,12.13
2019-04-22T07:24:17.501Z,18.48
2019-04-22T07:26:24.175Z,16.25
2019-04-22T07:29:04.097Z,16.12
2019-04-22T07:31:29.010Z,17.60
2019-04-22T07:34:08.441Z,13.88
2019-04-22T07:36:45.605Z,14.45
2019-04-22T07:39:04.198Z,16.42
2019-04-22T07:41:31.717Z,13.53
2019-04-22T07:44:13.163Z,14.03
2019-04-22T07:46:35.456Z,15.68
2019-04-22T07:49:06.647Z,17.07
2019-04-22T07:54:07.533Z,14.65
2019-04-22T07:56:39.123Z,13.90
2019-04-22T07:59:13.997Z,19.67
2019-04-22T08:04:21.312Z,16.42
2019-04-22T08:06:43.644Z,14.90
2019-04-22T08:09:13.923Z,15.28
2019-04-22T08:14:07.566Z,15.00
2019-04-22T08:16:43.957Z,18.27
2019-04-22T08:19:17.000Z,18.82
2019-04-22T08:21:46.938Z,15.98
2019-04-22T08:26:38.323Z,12.35
2019-04-22T08:29:14.495Z,14.10
2019-04-22T08:31:40.372Z,14.07
2019-04-22T08:34:14.140Z,13.98
2019-04-22T08:37:10.314Z,14.75
2019-04-22T08:39:32.562Z,16.45
2019-04-22T08:44:18.605Z,12.13
2019-04-22T08:46:49.015Z,16.07
2019-04-22T08:49:09.929Z,13.80
2019-04-22T08:51:42.796Z,14.00
2019-04-22T08:56:45.653Z,13.45
2019-04-22T08:59:28.358Z,11.08
2019-04-22T09:01:43.495Z,16.52
2019-04-22T09:04:11.977Z,10.32
2019-04-22T09:09:21.207Z,18.55
2019-04-22T09:11:54.758Z,16.37
2019-04-22T09:14:29.737Z,10.25
2019-04-22T09:16:48.490Z,14.80
2019-04-22T09:19:24.062Z,13.35
2019-04-22T09:22:00.572Z,13.53
2019-04-22T09:24:23.442Z,11.83
2019-04-22T09:27:17.866Z,15.30
2019-04-22T09:29:36.764Z,14.98
2019-04-22T09:32:09.544Z,10.93
2019-04-22T09:34:34.957Z,15.08
2019-04-22T09:37:06.143Z,14.25
2019-04-22T09:39:34.706Z,12.75
2019-04-22T09:42:07.878Z,15.83
2019-04-22T09:44:36.174Z,14.50
2019-04-22T09:47:08.126Z,10.43
2019-04-22T09:49:46.644Z,11.68
2019-04-22T09:52:08.449Z,12.55
2019-04-22T09:57:01.834Z,18.65
2019-04-22T09:59:36.314Z,10.60
2019-04-22T10:02:21.446Z,10.90
2019-04-22T10:04:39.777Z,13.25
2019-04-22T10:07:11.137Z,12.98
2019-04-22T10:09:53.174Z,15.60
2019-04-22T10:12:10.198Z,13.72
2019-04-22T10:14:42.500Z,10.90
2019-04-22T10:17:07.798Z,16.17
2019-04-22T10:19:41.239Z,11.75
2019-04-22T10:22:12.128Z,16.12
2019-04-22T10:24:39.181Z,13.70
2019-04-22T10:27:05.986Z,14.15
2019-04-22T10:29:47.233Z,11.53
2019-04-22T10:32:11.292Z,15.50
2019-04-22T10:34:28.922Z,14.13
2019-04-22T10:36:54.422Z,13.65
2019-04-22T10:39:20.321Z,19.12
2019-04-22T10:41:50.595Z,12.53
2019-04-22T10:44:19.687Z,12.53
2019-04-22T10:46:49.737Z,14.30
2019-04-22T10:49:18.559Z,13.78
2019-04-22T10:51:48.610Z,14.37
2019-04-22T10:54:17.773Z,10.78
2019-04-22T10:56:46.704Z,14.13
2019-04-22T10:59:16.434Z,13.40
2019-04-22T11:01:46.529Z,12.00
2019-04-22T11:04:15.509Z,11.50
2019-04-22T11:06:52.091Z,11.45
2019-04-22T11:09:16.202Z,15.43
2019-04-22T11:11:54.217Z,14.50
2019-04-22T11:14:16.825Z,14.40
2019-04-22T11:16:45.724Z,14.45
2019-04-22T11:19:14.551Z,13.67
2019-04-22T11:21:56.116Z,17.00
2019-04-22T11:24:14.846Z,12.98
2019-04-22T11:29:12.111Z,12.10
2019-04-22T11:31:42.115Z,13.33
2019-04-22T11:34:11.319Z,16.02
2019-04-22T11:36:40.870Z,13.43
2019-04-22T11:41:40.253Z,14.10
2019-04-22T11:44:09.555Z,11.97
2019-04-22T11:46:39.213Z,14.35
2019-04-22T11:51:38.083Z,14.65
2019-04-22T11:54:07.244Z,11.93
2019-04-22T11:56:36.915Z,14.73
2019-04-22T12:04:04.219Z,12.78
2019-04-22T12:06:33.748Z,11.93
2019-04-22T12:09:03.868Z,15.83
2019-04-22T12:11:32.772Z,14.73
2019-04-22T12:14:02.187Z,14.03
2019-04-22T12:16:31.646Z,14.78
2019-04-22T12:19:00.909Z,20.17
2019-04-22T12:21:30.960Z,18.23
2019-04-22T12:24:01.024Z,12.15
2019-04-22T12:26:30.635Z,12.55
2019-04-22T12:28:59.451Z,10.82
2019-04-22T12:31:29.294Z,14.03
2019-04-22T12:33:59.331Z,13.95
2019-04-22T12:36:28.675Z,12.28
2019-04-22T12:38:57.937Z,18.20
2019-04-22T12:41:27.795Z,13.65
2019-04-22T12:44:15.975Z,14.60
2019-04-22T12:46:46.015Z,12.98
2019-04-22T12:49:16.336Z,10.98
2019-04-22T12:51:45.406Z,13.93
2019-04-22T12:54:15.195Z,16.17
2019-04-22T12:59:14.001Z,11.13
2019-04-22T13:01:43.031Z,11.25
2019-04-22T13:04:15.551Z,14.20
2019-04-22T13:06:43.971Z,12.95
2019-04-22T13:09:12.904Z,11.85
2019-04-22T13:11:42.690Z,11.43
2019-04-22T13:14:12.715Z,10.82
2019-04-22T13:16:42.839Z,14.38
2019-04-22T13:19:13.699Z,11.90
2019-04-22T13:21:42.743Z,14.07
2019-04-22T13:24:13.120Z,14.45
2019-04-22T13:26:43.078Z,14.53
2019-04-22T13:34:25.561Z,19.57
2019-04-22T13:36:43.664Z,11.22
2019-04-22T13:39:13.304Z,11.88
2019-04-22T13:41:48.741Z,12.05
2019-04-22T13:44:12.875Z,13.68
2019-04-22T13:47:02.110Z,15.40
2019-04-22T13:49:40.700Z,16.07
2019-04-22T13:52:24.369Z,13.70
2019-04-22T13:57:01.678Z,13.65
2019-04-22T13:59:26.091Z,10.40
2019-04-22T14:02:01.456Z,14.28
2019-04-22T14:04:32.672Z,14.15
2019-04-22T14:07:02.882Z,13.13
2019-04-22T14:09:33.597Z,14.25
2019-04-22T14:12:05.670Z,15.70
2019-04-22T14:14:33.708Z,12.25
2019-04-22T14:17:03.001Z,12.37
2019-04-22T14:19:32.283Z,12.45
2019-04-22T14:22:01.957Z,10.75
2019-04-22T14:27:13.893Z,14.78
2019-04-22T14:29:29.499Z,18.67
2019-04-22T14:32:05.269Z,14.77
2019-04-22T14:34:30.255Z,13.32
2019-04-22T14:36:59.410Z,15.88
2019-04-22T14:39:28.431Z,13.65
2019-04-22T14:44:08.381Z,10.67
2019-04-22T14:47:19.609Z,12.73
2019-04-22T14:49:54.326Z,13.45
2019-04-22T14:52:22.796Z,14.25
2019-04-22T14:54:43.399Z,13.45
2019-04-22T14:57:01.137Z,17.52
2019-04-22T14:59:31.173Z,12.93
2019-04-22T15:02:01.433Z,14.23
2019-04-22T15:04:31.079Z,19.12
2019-04-22T15:07:01.159Z,13.90
2019-04-22T15:09:30.153Z,14.63
2019-04-22T15:12:11.130Z,13.08
2019-04-22T15:14:29.891Z,12.63
2019-04-22T15:17:13.129Z,12.18
2019-04-22T15:19:49.726Z,16.15
2019-04-22T15:22:18.823Z,17.23
2019-04-22T15:24:47.596Z,18.17
2019-04-22T15:27:16.415Z,13.77
2019-04-22T15:29:45.200Z,14.90
2019-04-22T15:32:15.319Z,18.63
2019-04-22T15:34:44.573Z,17.75
2019-04-22T15:37:13.949Z,12.83
2019-04-22T15:39:43.687Z,13.25
2019-04-22T15:44:42.328Z,16.45
2019-04-22T15:47:11.256Z,17.83
2019-04-22T15:49:40.270Z,15.17
2019-04-22T15:52:10.457Z,15.40
2019-04-22T15:54:39.579Z,13.25
2019-04-22T15:57:08.896Z,15.23
2019-04-22T15:59:56.284Z,17.23
2019-04-22T16:02:09.968Z,20.23
2019-04-22T16:04:38.874Z,16.55
2019-04-22T16:07:08.615Z,22.43
2019-04-22T16:12:16.329Z,18.30
2019-04-22T16:14:42.004Z,19.00
2019-04-22T16:17:06.712Z,18.75
2019-04-22T16:19:36.942Z,16.10
2019-04-22T16:22:11.190Z,18.27
2019-04-22T16:24:38.252Z,16.77
2019-04-22T16:27:11.773Z,15.20
2019-04-22T16:29:41.355Z,13.38
2019-04-22T16:32:11.416Z,12.70
2019-04-22T16:34:40.365Z,19.57
2019-04-22T16:37:10.470Z,14.35
2019-04-22T16:39:41.960Z,16.07
2019-04-22T16:42:14.458Z,16.67
2019-04-22T16:44:40.722Z,19.30
2019-04-22T16:47:09.976Z,17.65
2019-04-22T16:49:39.281Z,18.98
2019-04-22T16:52:08.163Z,16.40
2019-04-22T16:54:36.964Z,19.67
2019-04-22T16:57:06.009Z,16.12
2019-04-22T16:59:35.201Z,15.63
2019-04-22T17:02:19.002Z,17.77
2019-04-22T17:04:53.809Z,17.48
2019-04-22T17:07:22.734Z,14.65
2019-04-22T17:09:52.145Z,16.20
2019-04-22T17:12:23.740Z,14.03
2019-04-22T17:14:58.018Z,14.73
2019-04-22T17:17:22.415Z,12.13
2019-04-22T17:19:53.281Z,19.87
2019-04-22T17:22:21.783Z,18.62
2019-04-22T17:24:50.806Z,18.77
2019-04-22T17:27:20.226Z,19.40
2019-04-22T17:29:50.450Z,16.90
2019-04-22T17:32:22.951Z,19.17
2019-04-22T17:34:49.888Z,15.35
2019-04-22T17:37:25.827Z,13.62
2019-04-22T17:40:07.299Z,23.22
2019-04-22T17:42:40.550Z,16.07
2019-04-22T17:45:19.135Z,13.10
2019-04-22T17:47:43.215Z,16.52
2019-04-22T17:50:18.303Z,17.15
2019-04-22T17:52:59.450Z,18.15
2019-04-22T17:55:21.409Z,20.00
2019-04-22T17:57:40.902Z,18.62
2019-04-22T18:00:17.211Z,22.13
2019-04-22T18:02:46.014Z,26.57
2019-04-22T18:05:03.742Z,24.57
2019-04-22T18:07:48.871Z,23.52
2019-04-22T18:13:15.736Z,19.52
2019-04-22T18:15:19.140Z,22.95
2019-04-22T18:17:57.052Z,23.15
2019-04-22T18:20:17.528Z,21.15
2019-04-22T18:22:44.581Z,22.62
2019-04-22T18:25:14.096Z,45.75
2019-04-22T18:28:04.189Z,26.68
2019-04-22T18:30:18.740Z,27.00
2019-04-22T18:32:50.655Z,22.52
2019-04-22T18:35:26.493Z,20.12
2019-04-22T18:38:11.328Z,31.40
2019-04-22T18:40:30.588Z,27.25
2019-04-22T18:43:03.699Z,22.13
2019-04-22T18:45:43.789Z,26.07
2019-04-22T18:47:55.469Z,24.30
2019-04-22T18:50:46.644Z,28.57
2019-04-22T18:53:35.214Z,27.02
2019-04-22T18:56:13.851Z,25.97
2019-04-22T18:58:34.346Z,36.80
2019-04-22T19:00:52.538Z,26.85
2019-04-22T19:03:26.319Z,30.15
2019-04-22T19:06:27.481Z,38.30
2019-04-22T19:08:43.064Z,31.33
2019-04-22T19:11:11.243Z,34.48
2019-04-22T19:16:27.422Z,27.90
2019-04-22T19:18:52.509Z,32.13
2019-04-22T19:21:14.920Z,31.07
2019-04-22T19:23:44.845Z,29.82
2019-04-22T19:26:23.212Z,30.15
2019-04-22T19:28:49.796Z,27.77
2019-04-22T19:31:21.879Z,33.20
2019-04-22T19:33:50.072Z,35.55
2019-04-22T19:36:20.637Z,32.73
2019-04-22T19:38:49.798Z,27.32
2019-04-22T19:41:24.140Z,33.73
2019-04-22T19:43:53.280Z,34.78
2019-04-22T19:46:18.278Z,28.27
2019-04-22T19:48:57.828Z,37.65
2019-04-22T19:51:30.861Z,35.25
2019-04-22T19:53:52.417Z,35.90
2019-04-22T19:56:19.071Z,29.05
2019-04-22T19:58:47.656Z,33.80
2019-04-22T20:01:44.121Z,29.20
2019-04-22T20:04:21.923Z,29.35
2019-04-22T20:06:49.145Z,25.75
2019-04-22T20:09:25.048Z,32.10
2019-04-22T20:11:51.778Z,29.57
2019-04-22T20:14:23.491Z,40.23
2019-04-22T20:16:48.732Z,34.75
2019-04-22T20:19:35.724Z,29.18
2019-04-22T20:22:00.026Z,32.80
2019-04-22T20:24:12.947Z,32.93
2019-04-22T20:27:15.235Z,31.80
2019-04-22T20:29:31.069Z,34.00
2019-04-22T20:31:59.196Z,33.88
2019-04-22T20:34:33.006Z,44.88
2019-04-22T20:37:03.640Z,41.73
2019-04-22T20:39:33.432Z,28.73
2019-04-22T20:42:05.587Z,34.50
2019-04-22T20:44:39.570Z,44.58
2019-04-22T20:47:00.034Z,49.75
2019-04-22T20:49:38.385Z,50.92
2019-04-22T20:52:16.418Z,52.13
2019-04-22T20:54:40.223Z,47.13
2019-04-22T20:57:07.371Z,47.60
2019-04-22T20:59:37.934Z,46.45
2019-04-22T21:02:06.605Z,49.70
2019-04-22T21:04:32.325Z,56.58
2019-04-22T21:07:05.085Z,53.85
2019-04-22T21:09:38.185Z,54.23
2019-04-22T21:12:12.495Z,48.15
2019-04-22T21:14:41.326Z,52.73
2019-04-22T21:17:13.790Z,51.10
2019-04-22T21:19:46.455Z,52.48
2019-04-22T21:22:16.224Z,53.00
2019-04-22T21:24:47.538Z,58.78
2019-04-22T21:27:22.257Z,46.05
2019-04-22T21:29:40.318Z,50.45
2019-04-22T21:32:21.671Z,47.05
2019-04-22T21:34:54.033Z,47.62
2019-04-22T21:37:22.180Z,45.95
2019-04-22T21:39:42.004Z,41.95
2019-04-22T21:42:15.881Z,44.58
2019-04-22T21:44:46.975Z,38.48
2019-04-22T21:47:23.910Z,35.20
2019-04-22T21:49:53.490Z,41.10
2019-04-22T21:52:24.495Z,37.70
2019-04-22T21:54:57.124Z,39.40
2019-04-22T21:57:44.098Z,45.52
2019-04-22T22:00:17.677Z,40.85
2019-04-22T22:02:47.671Z,43.55
2019-04-22T22:05:07.863Z,42.55
2019-04-22T22:07:25.662Z,49.77
2019-04-22T22:10:13.490Z,41.70
2019-04-22T22:12:42.269Z,35.55
2019-04-22T22:15:13.271Z,42.70
2019-04-22T22:17:35.528Z,39.08
2019-04-22T22:20:08.138Z,34.75
2019-04-22T22:25:17.941Z,45.17
2019-04-22T22:27:40.853Z,35.28
2019-04-22T22:30:38.814Z,41.33
2019-04-22T22:32:47.808Z,37.70
2019-04-22T22:35:16.856Z,38.78
2019-04-22T22:37:45.006Z,31.95
2019-04-22T22:40:05.533Z,35.17
2019-04-22T22:42:34.552Z,40.80
2019-04-22T22:45:07.855Z,38.40
2019-04-22T22:47:45.636Z,36.63
2019-04-22T22:50:20.641Z,34.55
2019-04-22T22:53:00.860Z,38.35
2019-04-22T22:55:24.920Z,42.73
2019-04-22T22:57:50.053Z,41.35
2019-04-22T23:00:22.331Z,37.55
2019-04-22T23:03:10.771Z,37.23
2019-04-22T23:05:25.758Z,36.65
2019-04-22T23:07:54.173Z,34.23
2019-04-22T23:10:25.404Z,40.40
2019-04-22T23:12:55.577Z,39.53
2019-04-22T23:15:20.363Z,33.63
2019-04-22T23:17:37.026Z,42.38
2019-04-22T23:20:05.745Z,34.35
2019-04-22T23:22:58.967Z,40.58
2019-04-22T23:25:28.157Z,37.03
2019-04-22T23:28:00.012Z,38.67
2019-04-22T23:30:30.037Z,43.28
2019-04-22T23:33:16.226Z,43.90
2019-04-22T23:35:56.355Z,41.18
2019-04-22T23:38:24.192Z,36.93
2019-04-22T23:41:00.076Z,34.83
2019-04-22T23:43:32.646Z,41.20
2019-04-22T23:46:07.006Z,34.13
2019-04-22T23:48:29.070Z,37.40
2019-04-22T23:51:09.231Z,36.40
2019-04-22T23:53:57.973Z,34.70
2019-04-22T23:56:10.992Z,36.38
